Terminal Aerodrome Forecast
Issued by NWS

Home | Current Version | Previous Version | Text Only | Print | Product List | Glossary On
Versions: 1 2 3 4 5 6 7 8 9 10 11 12 13 14 15 16 17 18
000
FTUS46 KMFR 191001 AAA
TAFLMT
TAF AMD
KLMT 191001Z 1910/2006 19012KT 6SM -SHRA BR BKN030 OVC040
     FM191500 22011KT P6SM -SHRA OVC040=

USA.gov is the U.S. government's official web portal to all federal, state and local government web resources and services.